createdAt,value
2017-06-17T00:00:22.374Z,7.20
2017-06-17T00:02:49.951Z,8.30
2017-06-17T00:05:17.502Z,10.70
2017-06-17T00:07:45.093Z,16.53
2017-06-17T00:10:12.685Z,9.37
2017-06-17T00:12:40.233Z,8.80
2017-06-17T00:15:07.811Z,5.63
2017-06-17T00:17:35.373Z,9.23
2017-06-17T00:20:02.990Z,8.93
2017-06-17T00:22:30.528Z,8.60
2017-06-17T00:24:58.076Z,8.10
2017-06-17T00:27:25.654Z,5.47
2017-06-17T00:29:53.203Z,6.93
2017-06-17T00:32:20.796Z,10.50
2017-06-17T00:34:48.359Z,7.50
2017-06-17T00:37:16.641Z,7.70
2017-06-17T00:39:44.204Z,13.33
2017-06-17T00:42:11.750Z,8.80
2017-06-17T00:44:39.328Z,5.47
2017-06-17T00:47:06.878Z,8.70
2017-06-17T00:49:34.454Z,6.43
2017-06-17T00:52:02.002Z,7.40
2017-06-17T00:54:29.580Z,10.33
2017-06-17T00:56:57.909Z,12.83
2017-06-17T00:59:25.531Z,14.60
2017-06-17T01:01:53.859Z,7.60
2017-06-17T01:04:21.421Z,7.90
2017-06-17T01:06:48.999Z,7.80
2017-06-17T01:09:16.563Z,10.30
2017-06-17T01:11:44.157Z,14.17
2017-06-17T01:14:11.703Z,7.83
2017-06-17T01:16:40.061Z,15.00
2017-06-17T01:19:07.623Z,6.70
2017-06-17T01:21:35.516Z,7.57
2017-06-17T01:24:03.936Z,4.93
2017-06-17T01:26:31.495Z,11.10
2017-06-17T01:28:59.044Z,9.97
2017-06-17T01:31:26.622Z,7.23
2017-06-17T01:33:54.177Z,6.03
2017-06-17T01:36:21.763Z,9.13
2017-06-17T01:38:49.325Z,9.13
2017-06-17T01:41:16.949Z,8.30
2017-06-17T01:43:44.511Z,7.93
2017-06-17T01:46:12.075Z,7.53
2017-06-17T01:48:39.668Z,7.80
2017-06-17T01:51:07.255Z,7.53
2017-06-17T01:53:35.617Z,9.03
2017-06-17T01:56:03.195Z,10.77
2017-06-17T01:58:30.819Z,10.80
2017-06-17T02:00:58.471Z,11.80
2017-06-17T02:03:26.032Z,12.83
2017-06-17T02:05:53.606Z,6.80
2017-06-17T02:08:21.158Z,12.00
2017-06-17T02:10:48.737Z,9.60
2017-06-17T02:13:16.299Z,7.77
2017-06-17T02:15:43.891Z,8.53
2017-06-17T02:18:11.439Z,6.97
2017-06-17T02:20:39.768Z,8.07
2017-06-17T02:23:07.347Z,6.27
2017-06-17T02:25:34.908Z,11.70
2017-06-17T02:28:02.485Z,9.40
2017-06-17T02:30:30.033Z,8.13
2017-06-17T02:32:57.627Z,13.60
2017-06-17T02:35:25.190Z,8.40
2017-06-17T02:37:52.767Z,7.90
2017-06-17T02:40:20.345Z,8.60
2017-06-17T02:42:47.909Z,7.17
2017-06-17T02:45:15.501Z,11.33
2017-06-17T02:47:43.049Z,8.63
2017-06-17T02:50:10.640Z,11.17
2017-06-17T02:52:38.188Z,6.50
2017-06-17T02:55:07.417Z,12.63
2017-06-17T02:57:34.980Z,8.57
2017-06-17T03:00:02.544Z,7.60
2017-06-17T03:02:30.121Z,6.10
2017-06-17T03:04:57.683Z,15.23
2017-06-17T03:07:25.261Z,8.33
2017-06-17T03:09:52.809Z,9.30
2017-06-17T03:12:20.402Z,9.93
2017-06-17T03:14:48.730Z,8.70
2017-06-17T03:17:16.308Z,6.70
2017-06-17T03:19:43.875Z,9.27
2017-06-17T03:22:11.463Z,10.40
2017-06-17T03:24:39.025Z,6.97
2017-06-17T03:27:07.340Z,8.70
2017-06-17T03:29:34.932Z,11.63
2017-06-17T03:32:02.496Z,9.77
2017-06-17T03:34:30.087Z,9.63
2017-06-17T03:36:57.650Z,16.10
2017-06-17T03:39:26.914Z,7.10
2017-06-17T03:41:54.505Z,10.60
2017-06-17T03:44:22.852Z,5.57
2017-06-17T03:46:50.407Z,15.83
2017-06-17T03:49:17.984Z,9.30
2017-06-17T03:51:45.546Z,7.53
2017-06-17T03:54:13.124Z,9.17
2017-06-17T03:56:41.513Z,11.40
2017-06-17T03:59:09.825Z,10.60
2017-06-17T04:01:37.373Z,7.17
2017-06-17T04:04:04.951Z,7.33
2017-06-17T04:06:32.545Z,7.77
2017-06-17T04:09:00.106Z,11.07
2017-06-17T04:11:27.654Z,15.53
2017-06-17T04:13:55.247Z,10.40
2017-06-17T04:16:23.668Z,8.30
2017-06-17T04:18:51.259Z,10.93
2017-06-17T04:21:19.376Z,11.37
2017-06-17T04:23:47.733Z,6.37
2017-06-17T04:26:15.280Z,8.50
2017-06-17T04:28:42.874Z,8.90
2017-06-17T04:31:10.466Z,12.17
2017-06-17T04:33:38.014Z,9.00
2017-06-17T04:36:05.711Z,6.40
2017-06-17T04:38:33.269Z,12.07
2017-06-17T04:41:00.838Z,7.57
2017-06-17T04:43:29.039Z,11.63
2017-06-17T04:45:57.359Z,14.30
2017-06-17T04:48:24.937Z,12.20
2017-06-17T04:50:52.499Z,13.30
2017-06-17T04:53:20.047Z,16.30
2017-06-17T04:55:47.625Z,12.87
2017-06-17T04:58:15.173Z,18.23
2017-06-17T05:00:42.812Z,10.77
2017-06-17T05:03:10.374Z,9.17
2017-06-17T05:05:37.966Z,14.83
2017-06-17T05:08:05.514Z,9.37
2017-06-17T05:10:33.582Z,9.30
2017-06-17T05:13:01.134Z,9.07
2017-06-17T05:15:28.757Z,9.20
2017-06-17T05:17:56.305Z,8.40
2017-06-17T05:20:24.618Z,7.03
2017-06-17T05:22:52.196Z,11.17
2017-06-17T05:25:19.744Z,11.43
2017-06-17T05:27:47.336Z,10.70
2017-06-17T05:30:14.870Z,12.87
2017-06-17T05:32:42.431Z,6.50
2017-06-17T05:35:10.032Z,13.17
2017-06-17T05:37:38.354Z,12.60
2017-06-17T05:40:05.900Z,15.67
2017-06-17T05:42:33.494Z,7.53
2017-06-17T05:45:01.072Z,11.17
2017-06-17T05:47:28.672Z,9.20
2017-06-17T05:49:56.258Z,14.40
2017-06-17T05:52:23.835Z,10.30
2017-06-17T05:54:51.383Z,11.20
2017-06-17T05:57:18.991Z,13.17
2017-06-17T05:59:47.334Z,12.10
2017-06-17T06:02:15.783Z,10.00
2017-06-17T06:04:43.346Z,13.23
2017-06-17T06:07:10.938Z,8.90
2017-06-17T06:09:38.485Z,19.90
2017-06-17T06:12:06.063Z,15.17
2017-06-17T06:14:33.657Z,8.27
2017-06-17T06:17:01.984Z,9.63
2017-06-17T06:19:29.578Z,12.50
2017-06-17T06:21:57.139Z,10.27
2017-06-17T06:24:24.717Z,9.30
2017-06-17T06:26:55.020Z,15.37
2017-06-17T06:29:22.604Z,8.73
2017-06-17T06:31:50.169Z,7.33
2017-06-17T06:34:25.276Z,22.80
2017-06-17T06:36:53.665Z,14.00
2017-06-17T06:39:39.486Z,10.00
2017-06-17T06:42:09.158Z,13.17
2017-06-17T06:44:36.756Z,9.20
2017-06-17T06:47:04.305Z,8.77
2017-06-17T06:49:31.868Z,11.70
2017-06-17T06:52:02.451Z,12.97
2017-06-17T06:54:30.834Z,13.80
2017-06-17T06:59:51.165Z,9.20
2017-06-17T07:02:20.333Z,9.03
2017-06-17T07:04:48.743Z,18.20
2017-06-17T07:07:30.213Z,11.90
2017-06-17T07:09:57.844Z,15.60
2017-06-17T07:12:26.096Z,11.37
2017-06-17T07:15:11.010Z,14.93
2017-06-17T07:17:39.076Z,11.80
2017-06-17T07:20:23.269Z,7.93
2017-06-17T07:22:55.482Z,12.77
2017-06-17T07:25:23.112Z,9.33
2017-06-17T07:30:29.114Z,9.73
2017-06-17T07:32:56.661Z,24.50
2017-06-17T07:35:24.211Z,29.67
2017-06-17T07:37:52.689Z,15.23
2017-06-17T07:40:20.237Z,16.00
2017-06-17T07:42:47.836Z,14.43
2017-06-17T07:45:15.393Z,13.40
2017-06-17T07:47:42.987Z,16.10
2017-06-17T07:50:26.931Z,18.60
2017-06-17T07:53:40.727Z,12.97
2017-06-17T07:56:45.488Z,12.83
2017-06-17T08:07:54.370Z,13.73
2017-06-17T08:10:22.704Z,10.67
2017-06-17T08:12:50.244Z,15.20
2017-06-17T08:15:17.811Z,13.23
2017-06-17T08:17:45.354Z,13.50
2017-06-17T08:20:12.930Z,10.47
2017-06-17T08:22:43.101Z,13.70
2017-06-17T08:25:10.698Z,20.93
2017-06-17T08:27:38.243Z,17.10
2017-06-17T08:30:05.839Z,15.23
2017-06-17T08:32:33.417Z,18.00
2017-06-17T08:35:00.978Z,17.20
2017-06-17T08:37:28.554Z,18.23
2017-06-17T08:39:56.106Z,12.00
2017-06-17T08:42:23.682Z,18.93
2017-06-17T08:44:52.001Z,18.13
2017-06-17T08:47:19.589Z,18.90
2017-06-17T08:49:47.143Z,22.00
2017-06-17T08:52:14.725Z,22.80
2017-06-17T08:54:43.053Z,12.20
2017-06-17T08:57:10.642Z,16.33
2017-06-17T08:59:38.191Z,27.37
2017-06-17T09:02:05.729Z,20.30
2017-06-17T09:04:33.308Z,21.80
2017-06-17T09:07:00.853Z,16.13
2017-06-17T09:09:28.417Z,28.47
2017-06-17T09:11:55.963Z,15.37
2017-06-17T09:14:23.535Z,16.27
2017-06-17T09:16:51.430Z,17.37
2017-06-17T09:19:18.977Z,13.30
2017-06-17T09:21:46.557Z,24.50
2017-06-17T09:24:14.875Z,17.90
2017-06-17T09:26:42.441Z,16.77
2017-06-17T09:29:09.978Z,18.63
2017-06-17T09:31:38.509Z,19.07
2017-06-17T09:34:06.063Z,15.23
2017-06-17T09:36:33.620Z,22.57
2017-06-17T09:39:01.185Z,20.13
2017-06-17T09:41:28.730Z,23.73
2017-06-17T09:43:56.303Z,19.47
2017-06-17T09:46:23.849Z,23.57
2017-06-17T09:48:51.427Z,19.60
2017-06-17T09:51:19.771Z,12.73
2017-06-17T09:53:48.210Z,18.10
2017-06-17T09:56:17.305Z,19.63
2017-06-17T09:58:45.646Z,14.37
2017-06-17T10:01:13.218Z,20.70
2017-06-17T10:03:40.826Z,18.13
2017-06-17T10:06:08.370Z,10.97
2017-06-17T10:08:35.953Z,18.63
2017-06-17T10:11:03.542Z,23.50
2017-06-17T10:13:31.119Z,16.23
2017-06-17T10:15:58.695Z,13.57
2017-06-17T10:18:27.000Z,13.93
2017-06-17T10:21:00.332Z,16.63
2017-06-17T10:23:27.893Z,16.47
2017-06-17T10:25:56.431Z,13.37
2017-06-17T10:28:25.029Z,14.57
2017-06-17T10:30:52.590Z,21.80
2017-06-17T10:33:20.441Z,24.03
2017-06-17T10:35:47.998Z,13.30
2017-06-17T10:38:15.558Z,13.37
2017-06-17T10:40:44.975Z,15.20
2017-06-17T10:43:14.378Z,12.53
2017-06-17T10:45:42.976Z,18.27
2017-06-17T10:48:11.444Z,20.00
2017-06-17T10:50:39.014Z,20.53
2017-06-17T10:53:06.594Z,13.57
2017-06-17T10:55:34.970Z,17.93
2017-06-17T10:58:02.523Z,22.33
2017-06-17T11:00:30.090Z,30.97
2017-06-17T11:02:57.630Z,15.60
2017-06-17T11:05:25.202Z,18.43
2017-06-17T11:07:52.741Z,21.50
2017-06-17T11:10:20.377Z,19.57
2017-06-17T11:12:47.953Z,20.23
2017-06-17T11:15:15.541Z,25.33
2017-06-17T11:17:43.145Z,15.03
2017-06-17T11:20:10.685Z,21.27
2017-06-17T11:22:38.268Z,22.00
2017-06-17T11:25:05.833Z,22.10
2017-06-17T11:27:33.411Z,17.17
2017-06-17T11:30:00.956Z,16.37
2017-06-17T11:32:28.583Z,17.47
2017-06-17T11:34:56.182Z,22.50
2017-06-17T11:37:23.738Z,16.63
2017-06-17T11:39:51.378Z,16.67
2017-06-17T11:42:18.926Z,19.10
2017-06-17T11:44:46.511Z,18.90
2017-06-17T11:47:14.059Z,22.20
2017-06-17T11:49:41.653Z,12.80
2017-06-17T11:52:09.215Z,19.20
2017-06-17T11:54:38.716Z,14.13
2017-06-17T11:57:06.299Z,17.90
2017-06-17T11:59:34.651Z,17.60
2017-06-17T12:02:02.227Z,16.50
2017-06-17T12:04:29.805Z,31.77
2017-06-17T12:06:58.147Z,21.87
2017-06-17T12:09:25.686Z,17.63
2017-06-17T12:11:53.246Z,15.50
2017-06-17T12:14:20.787Z,15.87
2017-06-17T12:16:48.361Z,17.00
2017-06-17T12:19:15.899Z,16.07
2017-06-17T12:21:43.485Z,12.57
2017-06-17T12:24:11.032Z,11.50
2017-06-17T12:26:38.613Z,15.30
2017-06-17T12:29:06.148Z,15.63
2017-06-17T12:31:33.730Z,15.20
2017-06-17T12:34:03.419Z,19.70
2017-06-17T12:36:30.975Z,16.00
2017-06-17T12:38:58.549Z,16.63
2017-06-17T12:41:26.090Z,15.47
2017-06-17T12:43:53.693Z,17.63
2017-06-17T12:46:21.237Z,17.50
2017-06-17T12:48:48.818Z,14.67
2017-06-17T12:51:17.120Z,18.23
2017-06-17T12:53:44.664Z,15.70
2017-06-17T12:56:13.015Z,15.00
2017-06-17T12:58:40.563Z,12.93
2017-06-17T13:01:08.146Z,14.43
2017-06-17T13:03:36.451Z,14.10
2017-06-17T13:06:04.064Z,20.53
2017-06-17T13:08:33.091Z,19.30
2017-06-17T13:11:00.671Z,14.53
2017-06-17T13:13:28.298Z,21.77
2017-06-17T13:15:56.625Z,22.37
2017-06-17T13:18:24.283Z,16.60
2017-06-17T13:20:51.862Z,13.73
2017-06-17T13:23:19.978Z,19.87
2017-06-17T13:25:47.554Z,13.13
2017-06-17T13:28:34.801Z,21.07
2017-06-17T13:31:02.415Z,20.80
2017-06-17T13:33:32.280Z,18.57
2017-06-17T13:36:01.225Z,18.07
2017-06-17T13:38:33.236Z,19.90
2017-06-17T13:41:03.032Z,17.07
2017-06-17T13:43:37.482Z,12.43
2017-06-17T13:46:06.956Z,25.70
2017-06-17T13:48:39.837Z,15.47
2017-06-17T13:51:12.765Z,15.27
2017-06-17T13:53:47.750Z,13.67
2017-06-17T13:56:15.556Z,14.87
2017-06-17T13:58:43.805Z,13.57
2017-06-17T14:01:12.114Z,19.60
2017-06-17T14:03:41.184Z,17.93
2017-06-17T14:06:09.034Z,20.43
2017-06-17T14:08:37.480Z,22.83
2017-06-17T14:11:05.908Z,18.23
2017-06-17T14:13:35.139Z,20.50
2017-06-17T14:16:04.031Z,24.47
2017-06-17T14:18:34.459Z,26.27
2017-06-17T14:21:08.819Z,21.60
2017-06-17T14:23:40.508Z,22.17
2017-06-17T14:26:08.117Z,21.93
2017-06-17T14:28:35.678Z,21.17
2017-06-17T14:31:03.436Z,22.93
2017-06-17T14:33:30.999Z,21.33
2017-06-17T14:35:59.392Z,21.60
2017-06-17T14:38:27.730Z,22.47
2017-06-17T14:40:55.292Z,18.70
2017-06-17T14:43:23.650Z,18.90
2017-06-17T14:45:51.204Z,16.17
2017-06-17T14:48:18.814Z,20.83
2017-06-17T14:50:46.373Z,17.83
2017-06-17T14:53:13.961Z,20.70
2017-06-17T14:55:41.526Z,18.03
2017-06-17T14:58:09.117Z,25.43
2017-06-17T15:00:36.665Z,20.80
2017-06-17T15:03:04.259Z,17.80
2017-06-17T15:05:31.821Z,18.30
2017-06-17T15:08:00.179Z,19.37
2017-06-17T15:10:27.763Z,22.23
2017-06-17T15:12:56.896Z,18.10
2017-06-17T15:15:24.458Z,19.20
2017-06-17T15:17:52.007Z,14.83
2017-06-17T15:20:19.615Z,15.33
2017-06-17T15:22:47.980Z,15.00
2017-06-17T15:25:16.128Z,13.27
2017-06-17T15:27:43.684Z,14.40
2017-06-17T15:30:11.276Z,16.90
2017-06-17T15:32:38.832Z,20.40
2017-06-17T15:35:06.418Z,16.50
2017-06-17T15:37:34.010Z,17.00
2017-06-17T15:40:01.574Z,17.43
2017-06-17T15:42:29.171Z,19.97
2017-06-17T15:44:56.728Z,16.17
2017-06-17T15:47:24.321Z,15.10
2017-06-17T15:49:51.915Z,18.90
2017-06-17T15:52:19.476Z,15.33
2017-06-17T15:54:47.084Z,16.40
2017-06-17T15:57:14.648Z,15.77
2017-06-17T15:59:42.239Z,14.77
2017-06-17T16:02:10.559Z,17.10
2017-06-17T16:04:38.147Z,15.53
2017-06-17T16:07:05.711Z,15.20
2017-06-17T16:09:33.302Z,15.90
2017-06-17T16:12:02.786Z,19.60
2017-06-17T16:14:31.113Z,13.53
2017-06-17T16:16:58.887Z,11.10
2017-06-17T16:19:26.463Z,11.07
2017-06-17T16:21:54.062Z,10.70
2017-06-17T16:24:21.619Z,12.07
2017-06-17T16:26:49.197Z,9.87
2017-06-17T16:29:16.793Z,10.90
2017-06-17T16:31:44.339Z,9.53
2017-06-17T16:34:11.930Z,11.07
2017-06-17T16:36:39.480Z,11.80
2017-06-17T16:39:07.102Z,10.93
2017-06-17T16:41:34.650Z,8.87
2017-06-17T16:44:03.144Z,8.90
2017-06-17T16:46:30.738Z,6.90
2017-06-17T16:48:58.286Z,8.87
2017-06-17T16:51:25.874Z,10.00
2017-06-17T16:53:53.420Z,15.00
2017-06-17T16:56:21.006Z,5.50
2017-06-17T16:58:48.597Z,5.97
2017-06-17T17:01:16.177Z,8.63
2017-06-17T17:03:43.741Z,16.80
2017-06-17T17:06:11.326Z,6.50
2017-06-17T17:08:38.865Z,5.07
2017-06-17T17:11:07.508Z,5.60
2017-06-17T17:13:35.106Z,6.80
2017-06-17T17:16:02.680Z,5.27
2017-06-17T17:18:30.292Z,5.23
2017-06-17T17:20:57.849Z,7.23
2017-06-17T17:23:26.208Z,4.67
2017-06-17T17:25:54.535Z,13.97
2017-06-17T17:28:22.129Z,4.23
2017-06-17T17:30:49.676Z,5.27
2017-06-17T17:33:17.291Z,10.43
2017-06-17T17:35:44.862Z,7.43
2017-06-17T17:38:12.456Z,6.80
2017-06-17T17:40:40.048Z,5.07
2017-06-17T17:43:07.596Z,4.60
2017-06-17T17:45:35.206Z,5.90
2017-06-17T17:48:02.828Z,8.47
2017-06-17T17:50:34.763Z,6.77
2017-06-17T17:53:05.566Z,5.93
2017-06-17T17:55:34.908Z,6.40
2017-06-17T17:58:04.765Z,7.70
2017-06-17T18:00:32.408Z,8.83
2017-06-17T18:03:02.726Z,5.43
2017-06-17T18:05:30.335Z,7.90
2017-06-17T18:08:00.241Z,11.70
2017-06-17T18:10:28.625Z,16.87
2017-06-17T18:12:56.533Z,5.53
2017-06-17T18:15:24.096Z,5.03
2017-06-17T18:17:51.659Z,5.00
2017-06-17T18:20:23.017Z,5.37
2017-06-17T18:22:50.596Z,7.80
2017-06-17T18:25:18.955Z,4.57
2017-06-17T18:27:46.516Z,6.23
2017-06-17T18:30:14.094Z,4.60
2017-06-17T18:32:41.658Z,9.13
2017-06-17T18:35:09.250Z,7.53
2017-06-17T18:37:36.827Z,7.47
2017-06-17T18:40:04.435Z,5.47
2017-06-17T18:42:31.987Z,6.00
2017-06-17T18:45:00.312Z,7.13
2017-06-17T18:47:27.933Z,5.33
2017-06-17T18:49:55.487Z,6.40
2017-06-17T18:52:23.097Z,5.00
2017-06-17T18:54:52.828Z,7.97
2017-06-17T18:57:21.021Z,7.90
2017-06-17T18:59:48.583Z,11.43
2017-06-17T19:02:16.942Z,8.17
2017-06-17T19:04:45.226Z,4.87
2017-06-17T19:07:12.816Z,10.60
2017-06-17T19:09:40.381Z,6.77
2017-06-17T19:12:07.974Z,6.93
2017-06-17T19:14:36.243Z,7.80
2017-06-17T19:17:03.805Z,6.57
2017-06-17T19:19:31.399Z,5.80
2017-06-17T19:21:58.994Z,5.80
2017-06-17T19:24:26.586Z,4.13
2017-06-17T19:26:54.204Z,4.77
2017-06-17T19:29:21.790Z,8.30
2017-06-17T19:31:50.923Z,4.33
2017-06-17T19:34:18.615Z,4.73
2017-06-17T19:36:46.164Z,5.10
2017-06-17T19:39:14.037Z,5.47
2017-06-17T19:41:44.892Z,6.17
2017-06-17T19:44:13.241Z,3.67
2017-06-17T19:46:40.795Z,4.60
2017-06-17T19:49:08.375Z,7.47
2017-06-17T19:51:35.969Z,8.77
2017-06-17T19:54:03.563Z,6.90
2017-06-17T19:56:31.147Z,10.67
2017-06-17T19:58:58.749Z,8.20
2017-06-17T20:01:26.303Z,8.87
2017-06-17T20:03:56.876Z,8.13
2017-06-17T20:06:24.432Z,10.63
2017-06-17T20:08:52.016Z,11.10
2017-06-17T20:11:19.564Z,6.20
2017-06-17T20:13:47.143Z,8.80
2017-06-17T20:16:14.735Z,6.63
2017-06-17T20:18:42.284Z,7.80
2017-06-17T20:21:16.403Z,5.67
2017-06-17T20:23:43.980Z,6.10
2017-06-17T20:26:11.528Z,6.57
2017-06-17T20:28:39.123Z,9.20
2017-06-17T20:31:07.600Z,9.63
2017-06-17T20:33:35.178Z,8.17
2017-06-17T20:36:03.207Z,6.20
2017-06-17T20:38:30.799Z,4.70
2017-06-17T20:40:59.682Z,6.17
2017-06-17T20:43:27.290Z,7.10
2017-06-17T20:45:58.152Z,7.27
2017-06-17T20:48:25.730Z,4.97
2017-06-17T20:50:53.293Z,10.13
2017-06-17T20:53:21.606Z,5.47
2017-06-17T20:55:49.154Z,6.23
2017-06-17T20:58:16.749Z,7.07
2017-06-17T21:00:45.108Z,7.47
2017-06-17T21:03:12.699Z,7.87
2017-06-17T21:05:40.261Z,6.70
2017-06-17T21:08:08.614Z,5.83
2017-06-17T21:11:06.995Z,6.47
2017-06-17T21:13:34.539Z,6.80
2017-06-17T21:16:02.806Z,9.47
2017-06-17T21:18:31.177Z,5.77
2017-06-17T21:20:58.753Z,6.00
2017-06-17T21:23:26.288Z,6.83
2017-06-17T21:25:53.879Z,7.53
2017-06-17T21:28:21.474Z,5.80
2017-06-17T21:30:49.793Z,6.97
2017-06-17T21:33:17.453Z,10.23
2017-06-17T21:35:45.010Z,11.50
2017-06-17T21:38:12.554Z,11.07
2017-06-17T21:40:40.132Z,19.73
2017-06-17T21:43:07.716Z,18.77
2017-06-17T21:45:35.274Z,20.30
2017-06-17T21:48:02.891Z,12.30
2017-06-17T21:50:30.437Z,21.47
2017-06-17T21:52:57.991Z,23.73
2017-06-17T21:55:25.595Z,29.50
2017-06-17T21:57:53.145Z,43.40
2017-06-17T22:00:20.727Z,94.03
2017-06-17T22:02:48.281Z,106.70
2017-06-17T22:05:15.879Z,124.50
2017-06-17T22:07:43.438Z,157.17
2017-06-17T22:10:11.785Z,174.30
2017-06-17T22:12:39.341Z,154.30
2017-06-17T22:15:06.925Z,75.40
2017-06-17T22:17:34.483Z,52.13
2017-06-17T22:20:02.081Z,54.90
2017-06-17T22:22:29.672Z,102.90
2017-06-17T22:24:57.252Z,121.13
2017-06-17T22:27:24.832Z,116.57
2017-06-17T22:29:52.386Z,102.27
2017-06-17T22:32:19.966Z,99.30
2017-06-17T22:34:47.538Z,100.80
2017-06-17T22:37:15.114Z,74.87
2017-06-17T22:39:42.662Z,52.93
2017-06-17T22:42:10.253Z,46.37
2017-06-17T22:44:37.805Z,45.80
2017-06-17T22:47:05.343Z,52.27
2017-06-17T22:49:32.934Z,48.67
2017-06-17T22:52:00.486Z,57.87
2017-06-17T22:54:28.069Z,56.03
2017-06-17T22:56:56.397Z,39.63
2017-06-17T22:59:24.015Z,43.07
2017-06-17T23:01:51.577Z,44.67
2017-06-17T23:04:19.205Z,36.43
2017-06-17T23:06:46.798Z,32.03
2017-06-17T23:09:15.101Z,43.47
2017-06-17T23:11:43.205Z,34.13
2017-06-17T23:14:11.138Z,24.93
2017-06-17T23:16:38.719Z,24.67
2017-06-17T23:19:06.267Z,26.70
2017-06-17T23:21:33.860Z,26.27
2017-06-17T23:24:01.421Z,28.63
2017-06-17T23:26:29.746Z,23.37
2017-06-17T23:28:58.116Z,27.13
2017-06-17T23:31:25.954Z,24.00
2017-06-17T23:33:54.298Z,19.33
2017-06-17T23:36:22.079Z,24.37
2017-06-17T23:38:49.696Z,24.07
2017-06-17T23:41:17.254Z,14.73
2017-06-17T23:43:44.835Z,14.53
2017-06-17T23:46:12.374Z,14.07
2017-06-17T23:48:39.966Z,17.13
2017-06-17T23:51:07.536Z,17.03
2017-06-17T23:53:35.118Z,18.53
2017-06-17T23:56:02.681Z,16.80
2017-06-17T23:58:30.253Z,16.63
